Decoded Metar for DAOI (ECH-CHELIFF in ALGERIA) (IATA:QAS) | Meteo·Mobile Aviation Weather
aviador You're here:

DAOI Decoded Metar

ECH-CHELIFF in ALGERIA
Report Time2019-02-17 16:00:00
UTC Time2019-02-17 16:30:06
Flight Rules vfr VFR
Wind140° at 08 kt
W.Decomp.*RWY 08: 4.0 kt HW 6.9 kt RCW
W.Rank140° ranks 24
Current wind is above 140° avg. (7.0)
Visibility9999 m
Phenomena:N/A
Clouds:Scattered 026 Hf
Broken 100 Hf
Expected CloudBase > 7,600 ft AGL from Temp-Dew spread
Ceiling10,000 ft
Temp16°C (ISA +2)
Dew Point-3°C (27% RH)
AAT10.7°C
QNH1024 hPa
Density Alt400 ft
Elevation469 ft
Report Wrong Elevation
Raw Report
METAR DAOI 171600Z 14008KT 9999 SCT026 BKN100 16/M03 Q1024=

Extra information for DAOI:More info

Metar Taf Metar & Taf Last 4 Metars F.Rules Stats Wind Profile Meteogram Temp Stats Airport Information Weather charts Add Link Nearby VenuesMetar ALERT Operation Metar Decoded Social comments